Ronnskar, Sweden

5:18 AM CEST on March 29, 2015 (GMT +0200)
Ojebyn | | Change Station
CLOSE
Current Station
Personal Weather Station
Location: Norrbottens Län, NORRBOTTENS LäN
Elevation: 20 ft
Nearby Weather Stations

Elev 20 ft 65.35 °N, 21.41 °E | Updated 23 seconds ago

Overcast
Overcast
29.5 °F
Feels Like 30 °F
N
2.2
Wind Variable Wind from SSE
Gusts 3.1 mph

Today
High -- | Low -- °F
--% Chance of Precip.
Yesterday
High -- | Low -- °F
Precip. -- in
6:02 AM 7:16 PM
Waxing Gibbous, 67% visible
Pressure 29.59 in
Visibility 6.2 miles
Clouds Overcast 500 ft
Windchill 30 °F
Dew Point 27 °F
Humidity 89%
Rainfall 0.00 in
Snow Depth Not available.
UV 0 out of 12
Pollen Not available.
Air Quality Not available.
Flu Activity Not available.
METAR ESNS 290250Z AUTO 17008KT 140V200 9999 OVC005/// M00/M01 Q1002

More Conditions Fewer Conditions

Pressure 29.59 in
Visibility 6.2 miles
Clouds Overcast 500 ft
Windchill 30 °F
Dew Point 27 °F
Humidity 89%
Rainfall 0.00 in
Snow Depth Not available.
UV 0 out of 12
Pollen Not available.
Air Quality Not available.
Flu Activity Not available.
METAR ESNS 290250Z AUTO 17008KT 140V200 9999 OVC005/// M00/M01 Q1002

More Conditions Fewer Conditions

10-Day Weather Forecast

Almanac

Astronomy

Mar. 29, 2015 Rise Set
Actual Time
Civil Twilight
Nautical Twilight
Astronomical Twilight
Moon
Length of Visible Light
Length of Day
Tomorrow will be .
, % of the Moon is Illuminated

Today's Extremes

Country Highs Country Lows

Community

WunderPhotos

Upload Photos

1,809,174 photos uploaded!

WunderBlogs® & News

Nearby

Air Quality

  Air Quality AQ Index Pollutant
Not available.

Snow Depth

Station Depth Elevation

Earthquake Activity

City Distance Mag. Time & Date
Minimum magnitude displayed is 2.5.

Coastal Water Temperatures

Place Temperature

Stations

Nearby Weather Stations

Station Location Temp. Windchill Dew Point Humidity Wind Precip. Elev Updated Type